Shenandoah National Park, Virginia
Current Conditions -  °F | °C
As of 1:15 PM on Friday 28 Nov 2014 (Local Time) from KLUA Reporting Station
Overcast Overcast  
Wind Chill: 28°   Ceiling: 4300
Heat Index: 36°   Visibility: 10mi
Dew Point: 21°   Wind: 10mph
Humidity: 56%   Direction: 280°W
Pressure: 30.28"   Gusts: NA
Location:  38.6496°N, 78.431°W
Report Text: KLUA 281815Z AUTO 28009KT 10SM OVC043 02/M06 A3028 RMK AO2
Loading
Personal Weather Stations






























Interactive Weather Map New forecast layout! Learn more

10-Day Weather Forecast

Advertisements
Track Severe Weather on mobile